Time;durP1;ratioP1;P1;durP2;ratioP2;P2;SDS_P1;SDS_P2;PMS_P1;PMS_P2;Temp;Humidity;BMP_temperature;BMP_pressure;BME280_temperature;BME280_humidity;BME280_pressure;Samples;Min_cycle;Max_cycle;Signal;HPM_P1;HPM_P2
2021/11/16 00:01:11;;;;;;;15.70;8.20;;;9.50;1.00;;;;;;5039896;28;20482;-78
2021/11/16 00:03:41;;;;;;;15.73;8.47;;;9.40;1.00;;;;;;5044291;28;20657;-79
2021/11/16 00:06:09;;;;;;;20.50;9.27;;;9.30;1.00;;;;;;5047925;28;20493;-79
2021/11/16 00:08:37;;;;;;;18.53;8.50;;;8.80;1.00;;;;;;5047996;28;20456;-77
2021/11/16 00:11:05;;;;;;;16.73;7.23;;;8.70;42.00;;;;;;5041691;28;20497;-79
2021/11/16 00:13:34;;;;;;;18.50;8.10;;;8.80;24.60;;;;;;5043630;28;20623;-80
2021/11/16 00:16:02;;;;;;;15.83;8.33;;;8.70;97.60;;;;;;5047836;28;20457;-79
2021/11/16 00:18:31;;;;;;;14.07;8.13;;;8.80;30.60;;;;;;5047022;28;20447;-79
2021/11/16 00:21:03;;;;;;;16.83;8.80;;;8.90;1.00;;;;;;5050332;28;20474;-80
2021/11/16 00:23:35;;;;;;;15.10;8.40;;;9.20;1.00;;;;;;5045057;28;20446;-80
2021/11/16 00:26:06;;;;;;;18.13;11.50;;;9.30;1.00;;;;;;5040988;28;20464;-79
2021/11/16 00:28:35;;;;;;;13.07;7.67;;;9.40;1.00;;;;;;5047472;28;20460;-81
2021/11/16 00:31:03;;;;;;;13.70;8.30;;;9.40;1.00;;;;;;5048523;28;20488;-80
2021/11/16 00:33:32;;;;;;;19.20;9.47;;;9.50;1.00;;;;;;5048125;28;20454;-80
2021/11/16 00:36:01;;;;;;;15.90;10.30;;;9.50;1.00;;;;;;5041305;28;20465;-79
2021/11/16 00:38:30;;;;;;;18.33;8.30;;;9.60;1.00;;;;;;5040905;28;20466;-81
2021/11/16 00:40:58;;;;;;;14.03;9.13;;;9.60;1.00;;;;;;5036665;28;20596;-80
2021/11/16 00:43:27;;;;;;;17.73;9.87;;;9.60;1.00;;;;;;5048374;28;20480;-81
2021/11/16 00:45:56;;;;;;;13.70;8.10;;;9.60;1.00;;;;;;5047419;28;21029;-80
2021/11/16 00:48:25;;;;;;;15.57;7.40;;;9.60;1.00;;;;;;5048941;28;20453;-80
2021/11/16 00:50:57;;;;;;;18.57;8.67;;;9.50;1.00;;;;;;5049190;28;20488;-81
2021/11/16 00:53:29;;;;;;;16.90;7.97;;;9.30;1.00;;;;;;5045906;28;20474;-79
2021/11/16 00:55:58;;;;;;;14.90;7.83;;;9.10;1.00;;;;;;5031908;28;20463;-82
2021/11/16 00:58:26;;;;;;;18.67;8.67;;;9.30;1.00;;;;;;5049683;28;20446;-81
2021/11/16 01:00:55;;;;;;;14.60;7.43;;;9.40;1.00;;;;;;5038022;28;20494;-80
2021/11/16 01:03:24;;;;;;;14.93;7.50;;;9.40;1.00;;;;;;5045218;28;20462;-79
2021/11/16 01:05:53;;;;;;;11.67;7.07;;;9.00;1.00;;;;;;5045254;28;20458;-81
2021/11/16 01:08:23;;;;;;;20.83;7.87;;;8.70;1.00;;;;;;5042486;28;21111;-81
2021/11/16 01:10:54;;;;;;;21.10;8.43;;;8.80;1.00;;;;;;5031718;28;20541;-81
2021/11/16 01:13:25;;;;;;;14.87;8.43;;;8.50;92.70;;;;;;5045300;28;20459;-79
2021/11/16 01:15:54;;;;;;;18.90;9.00;;;8.70;21.50;;;;;;5042727;28;20464;-80
2021/11/16 01:18:24;;;;;;;15.80;7.93;;;8.60;2.00;;;;;;5035274;28;20488;-81
2021/11/16 01:20:53;;;;;;;20.03;9.00;;;8.70;12.70;;;;;;5040556;28;20463;-80
2021/11/16 01:23:22;;;;;;;12.30;6.60;;;8.80;1.00;;;;;;5041064;28;20829;-80
2021/11/16 01:25:52;;;;;;;17.70;8.63;;;8.80;1.00;;;;;;5036479;28;20466;-79
2021/11/16 01:28:25;;;;;;;11.03;6.87;;;8.80;1.00;;;;;;5043663;28;20458;-80
2021/11/16 01:30:56;;;;;;;14.97;7.57;;;8.80;1.00;;;;;;5049470;28;20498;-80
2021/11/16 01:33:28;;;;;;;16.73;8.40;;;8.70;1.00;;;;;;5049652;28;20452;-80
2021/11/16 01:35:57;;;;;;;13.27;7.83;;;8.90;1.00;;;;;;5046774;28;20466;-80
2021/11/16 01:38:27;;;;;;;17.07;7.10;;;9.10;1.00;;;;;;5042669;28;20509;-81
2021/11/16 01:40:56;;;;;;;18.77;7.83;;;9.20;1.00;;;;;;5031931;28;20550;-80
2021/11/16 01:43:25;;;;;;;13.17;7.30;;;9.30;1.00;;;;;;5041662;28;21040;-80
2021/11/16 01:45:59;;;;;;;20.53;9.43;;;9.60;1.00;;;;;;5043141;28;20450;-81
2021/11/16 01:48:28;;;;;;;15.50;8.40;;;9.40;1.00;;;;;;5052030;28;20469;-81
2021/11/16 01:50:56;;;;;;;12.17;7.87;;;9.50;1.00;;;;;;5051531;28;20480;-81
2021/11/16 01:53:24;;;;;;;12.93;8.07;;;9.50;1.00;;;;;;5038722;28;20471;-81
2021/11/16 01:55:53;;;;;;;12.87;7.77;;;9.50;1.00;;;;;;5047322;28;20446;-81
2021/11/16 01:58:23;;;;;;;14.93;7.43;;;9.50;1.00;;;;;;5057934;28;20453;-81
2021/11/16 02:00:53;;;;;;;11.40;7.03;;;9.50;1.00;;;;;;5052798;28;20469;-81
2021/11/16 02:03:23;;;;;;;16.77;8.10;;;9.50;1.00;;;;;;5050246;28;20451;-81
2021/11/16 02:05:54;;;;;;;14.63;8.80;;;9.50;1.00;;;;;;5056469;28;20504;-82
2021/11/16 02:08:23;;;;;;;14.80;8.80;;;9.50;1.00;;;;;;5044031;28;20455;-80
2021/11/16 02:10:54;;;;;;;18.57;8.40;;;9.50;1.00;;;;;;5056016;28;20477;-80
2021/11/16 02:13:24;;;;;;;15.67;7.60;;;9.60;1.00;;;;;;5047538;28;20453;-79
2021/11/16 02:15:53;;;;;;;17.70;8.57;;;9.60;1.00;;;;;;5051216;28;20464;-81
2021/11/16 02:18:21;;;;;;;16.03;8.20;;;9.60;1.00;;;;;;5053684;28;20545;-79
2021/11/16 02:20:52;;;;;;;14.23;7.70;;;9.90;99.90;;;;;;5052254;28;20473;-80
2021/11/16 02:23:20;;;;;;;17.10;8.33;;;9.60;99.90;;;;;;5039873;28;20521;-81
2021/11/16 02:25:49;;;;;;;12.00;7.27;;;9.20;99.90;;;;;;5043670;28;20478;-81
2021/11/16 02:28:18;;;;;;;15.40;8.07;;;9.10;1.00;;;;;;5050496;28;20447;-80
2021/11/16 02:30:48;;;;;;;15.70;8.40;;;9.20;1.00;;;;;;5038870;28;20474;-79
2021/11/16 02:33:19;;;;;;;17.40;8.80;;;9.20;1.00;;;;;;5051268;28;20456;-81
2021/11/16 02:35:47;;;;;;;19.87;8.30;;;9.30;1.00;;;;;;5040800;28;20455;-80
2021/11/16 02:38:18;;;;;;;17.73;8.20;;;9.30;1.00;;;;;;5034084;28;20596;-80
2021/11/16 02:40:46;;;;;;;14.73;7.70;;;9.10;1.00;;;;;;5046406;28;20483;-80
2021/11/16 02:43:15;;;;;;;16.47;7.47;;;9.20;1.00;;;;;;5045813;28;20462;-80
2021/11/16 02:45:44;;;;;;;13.57;8.07;;;9.30;1.00;;;;;;5041574;28;20451;-81
2021/11/16 02:48:12;;;;;;;17.37;8.33;;;9.30;1.00;;;;;;5041521;28;21189;-80
2021/11/16 02:50:42;;;;;;;14.70;8.37;;;9.00;1.00;;;;;;5044821;28;20486;-80
2021/11/16 02:53:11;;;;;;;13.10;6.97;;;9.10;1.00;;;;;;5039712;28;20454;-79
2021/11/16 02:55:40;;;;;;;13.43;8.00;;;9.00;1.00;;;;;;5043014;28;20845;-79
2021/11/16 02:58:09;;;;;;;15.73;7.77;;;9.00;1.00;;;;;;5047435;28;20456;-80
2021/11/16 03:00:39;;;;;;;12.63;7.83;;;9.00;1.00;;;;;;5046427;28;20481;-79
2021/11/16 03:03:07;;;;;;;13.63;7.10;;;8.80;1.00;;;;;;5043519;28;20461;-79
2021/11/16 03:05:35;;;;;;;16.77;8.20;;;8.80;1.00;;;;;;5037357;28;21219;-79
2021/11/16 03:08:13;;;;;;;21.10;8.97;;;8.80;1.00;;;;;;5029315;28;20473;-79
2021/11/16 03:10:43;;;;;;;13.80;7.90;;;8.90;1.00;;;;;;5032865;28;20482;-79
2021/11/16 03:13:11;;;;;;;15.70;9.40;;;8.80;1.00;;;;;;5037592;28;20496;-80
2021/11/16 03:15:40;;;;;;;14.47;8.37;;;8.70;1.00;;;;;;5039128;28;20957;-79
2021/11/16 03:18:10;;;;;;;15.77;7.50;;;8.60;1.00;;;;;;5040686;28;20480;-79
2021/11/16 03:20:39;;;;;;;15.60;8.70;;;8.50;1.00;;;;;;5035463;28;20848;-80
2021/11/16 03:23:13;;;;;;;14.47;7.43;;;8.50;1.00;;;;;;5043105;28;20457;-81
2021/11/16 03:25:44;;;;;;;14.90;7.37;;;8.40;1.00;;;;;;5043122;28;20463;-81
2021/11/16 03:28:12;;;;;;;12.87;6.67;;;8.60;1.00;;;;;;5039051;28;20458;-80
2021/11/16 03:30:43;;;;;;;11.73;7.07;;;8.50;1.00;;;;;;5037941;28;20482;-80
2021/11/16 03:33:11;;;;;;;14.67;7.90;;;8.70;1.00;;;;;;5041540;28;20482;-80
2021/11/16 03:35:40;;;;;;;16.10;8.20;;;8.70;1.00;;;;;;5041474;28;20474;-81
2021/11/16 03:38:10;;;;;;;17.90;7.70;;;8.90;1.00;;;;;;5031521;28;20458;-80
2021/11/16 03:40:40;;;;;;;15.33;8.57;;;8.90;1.00;;;;;;5042942;28;20462;-79
2021/11/16 03:43:10;;;;;;;18.40;7.97;;;9.00;1.00;;;;;;5046918;28;20453;-80
2021/11/16 03:45:40;;;;;;;13.97;7.87;;;9.10;1.00;;;;;;5050227;28;20458;-79
2021/11/16 03:48:10;;;;;;;14.50;8.13;;;9.00;1.00;;;;;;5044127;28;20456;-79
2021/11/16 03:50:40;;;;;;;13.30;7.73;;;8.90;1.00;;;;;;5047876;28;20475;-80
2021/11/16 03:53:09;;;;;;;16.87;7.60;;;8.80;1.00;;;;;;5032930;28;20578;-80
2021/11/16 03:55:40;;;;;;;16.10;8.53;;;8.60;1.00;;;;;;5045744;28;20449;-79
2021/11/16 03:58:11;;;;;;;12.20;6.37;;;8.60;1.00;;;;;;5048978;28;20461;-80
2021/11/16 04:00:42;;;;;;;15.77;8.67;;;8.60;1.00;;;;;;5045889;28;20490;-79
2021/11/16 04:03:11;;;;;;;13.40;6.80;;;8.70;1.00;;;;;;5047589;28;21116;-80
2021/11/16 04:05:39;;;;;;;15.33;7.77;;;8.80;1.00;;;;;;5041343;28;20462;-81
2021/11/16 04:08:08;;;;;;;16.87;10.23;;;9.00;1.00;;;;;;5032987;28;20589;-80
2021/11/16 04:10:36;;;;;;;14.23;8.30;;;9.10;1.00;;;;;;5049908;28;20493;-79
2021/11/16 04:13:05;;;;;;;16.97;9.13;;;9.10;1.00;;;;;;5044202;28;20486;-79
2021/11/16 04:15:35;;;;;;;15.50;8.13;;;8.90;1.00;;;;;;5041818;28;20465;-81
2021/11/16 04:18:04;;;;;;;16.17;7.80;;;8.80;1.00;;;;;;5044594;28;20458;-80
2021/11/16 04:20:35;;;;;;;20.47;7.17;;;8.70;1.00;;;;;;5044519;28;20505;-79
2021/11/16 04:23:06;;;;;;;15.83;8.20;;;8.80;1.00;;;;;;5034540;28;20454;-81
2021/11/16 04:25:38;;;;;;;16.10;8.53;;;8.80;1.00;;;;;;5040403;28;20458;-80
2021/11/16 04:28:07;;;;;;;12.53;7.50;;;8.40;1.00;;;;;;5040490;28;20450;-78
2021/11/16 04:30:38;;;;;;;15.17;7.33;;;8.40;1.00;;;;;;5048993;28;20922;-80
2021/11/16 04:33:08;;;;;;;18.67;9.13;;;8.40;1.00;;;;;;5044571;28;20803;-79
2021/11/16 04:35:36;;;;;;;13.03;7.47;;;8.40;1.00;;;;;;5046790;28;20470;-80
2021/11/16 04:38:06;;;;;;;18.97;9.50;;;8.30;1.00;;;;;;5031677;28;20458;-79
2021/11/16 04:40:38;;;;;;;12.97;7.40;;;8.40;1.00;;;;;;5043542;28;21072;-79
2021/11/16 04:43:09;;;;;;;14.67;8.40;;;8.50;1.00;;;;;;5051706;28;21026;-82
2021/11/16 04:45:41;;;;;;;16.27;7.70;;;8.70;1.00;;;;;;5055068;28;21063;-82
2021/11/16 04:48:14;;;;;;;20.20;9.97;;;8.70;1.00;;;;;;5039347;28;21054;-81
2021/11/16 04:50:58;;;;;;;13.90;8.80;;;8.80;1.00;;;;;;5040115;28;20482;-80
2021/11/16 04:53:51;;;;;;;14.17;7.53;;;8.70;1.00;;;;;;5045743;28;20474;-81
2021/11/16 05:04:34;;;;;;;14.73;7.43;;;8.20;16.00;;;;;;5033778;28;20478;-81
2021/11/16 05:07:04;;;;;;;16.40;8.70;;;8.00;99.90;;;;;;5035720;28;20974;-80
2021/11/16 05:09:32;;;;;;;15.50;7.53;;;7.90;99.90;;;;;;5050570;28;20454;-80
2021/11/16 05:12:01;;;;;;;11.50;6.77;;;8.00;99.90;;;;;;5048491;28;20483;-80
2021/11/16 05:14:29;;;;;;;15.00;8.73;;;8.10;99.90;;;;;;5044087;28;20456;-80
2021/11/16 05:16:58;;;;;;;18.07;7.70;;;8.00;99.90;;;;;;5038075;28;20457;-76
2021/11/16 05:19:28;;;;;;;16.40;7.90;;;8.10;99.90;;;;;;5043080;28;20518;-77
2021/11/16 05:21:56;;;;;;;16.67;8.30;;;8.30;99.90;;;;;;5044659;28;20474;-76
2021/11/16 05:24:25;;;;;;;20.53;8.53;;;8.40;1.00;;;;;;5048761;28;20460;-81
2021/11/16 05:26:53;;;;;;;14.80;7.67;;;8.40;1.00;;;;;;5031582;28;20462;-81
2021/11/16 05:29:22;;;;;;;16.67;7.87;;;8.20;9.10;;;;;;5039183;28;20827;-81
2021/11/16 05:31:50;;;;;;;14.90;8.40;;;8.40;1.00;;;;;;5043631;28;21226;-81
2021/11/16 05:34:21;;;;;;;13.90;7.07;;;8.50;1.00;;;;;;5047123;28;21027;-78
2021/11/16 05:36:50;;;;;;;12.47;7.80;;;8.60;1.00;;;;;;5044098;28;20535;-78
2021/11/16 05:39:18;;;;;;;13.57;7.23;;;8.70;1.00;;;;;;5042126;28;20447;-79
2021/11/16 05:41:48;;;;;;;15.83;7.33;;;8.60;1.00;;;;;;5036175;28;20565;-78
2021/11/16 05:44:17;;;;;;;17.37;8.67;;;8.50;1.00;;;;;;5040453;28;20498;-77
2021/11/16 05:46:45;;;;;;;16.10;7.67;;;8.20;1.00;;;;;;5029976;28;21004;-79
2021/11/16 05:49:14;;;;;;;15.83;7.80;;;8.20;1.00;;;;;;5046062;28;20964;-79
2021/11/16 05:51:43;;;;;;;15.37;6.43;;;8.30;1.00;;;;;;5033024;28;20487;-78
2021/11/16 05:54:17;;;;;;;13.37;6.73;;;8.20;1.00;;;;;;5048853;28;20483;-78
2021/11/16 05:56:46;;;;;;;11.50;5.77;;;8.20;1.00;;;;;;5042637;28;20462;-78
2021/11/16 05:59:14;;;;;;;15.10;7.37;;;8.30;1.00;;;;;;5044267;28;20460;-78
2021/11/16 06:01:42;;;;;;;12.00;7.20;;;8.30;1.00;;;;;;5039050;28;20481;-79
2021/11/16 06:04:11;;;;;;;11.90;6.20;;;8.30;1.00;;;;;;5031340;28;21583;-78
2021/11/16 06:06:40;;;;;;;14.33;7.30;;;8.40;1.00;;;;;;5039804;28;20461;-78
2021/11/16 06:09:14;;;;;;;11.00;5.70;;;8.40;1.00;;;;;;5036320;28;20454;-77
2021/11/16 06:11:42;;;;;;;10.80;5.90;;;8.30;1.00;;;;;;5039444;28;20485;-79
2021/11/16 06:14:11;;;;;;;12.47;6.53;;;8.40;1.00;;;;;;5037950;28;20488;-78
2021/11/16 06:16:39;;;;;;;16.77;6.93;;;8.10;1.00;;;;;;5035584;28;20440;-80
2021/11/16 06:19:09;;;;;;;10.67;6.10;;;7.90;1.00;;;;;;5045907;28;20449;-77
2021/11/16 06:21:37;;;;;;;9.30;4.83;;;7.70;68.50;;;;;;5049108;28;20504;-79
2021/11/16 06:24:06;;;;;;;10.73;5.83;;;7.90;50.10;;;;;;5042970;28;20595;-78
2021/11/16 06:26:35;;;;;;;9.97;5.23;;;8.10;1.00;;;;;;5045034;28;20464;-79
2021/11/16 06:29:07;;;;;;;14.20;7.40;;;8.20;1.00;;;;;;5043284;28;20527;-79
2021/11/16 06:31:36;;;;;;;9.30;5.93;;;8.20;1.00;;;;;;5045388;28;20480;-79
2021/11/16 06:34:07;;;;;;;14.97;7.80;;;8.30;1.00;;;;;;5048323;28;21023;-79
2021/11/16 06:36:38;;;;;;;11.20;6.67;;;8.00;1.00;;;;;;5046633;28;20467;-80
2021/11/16 06:39:09;;;;;;;14.67;6.73;;;8.10;1.00;;;;;;5037628;28;20459;-79
2021/11/16 06:41:40;;;;;;;12.30;6.63;;;8.20;1.00;;;;;;5038347;28;20478;-79
2021/11/16 06:44:09;;;;;;;13.03;7.03;;;8.20;1.00;;;;;;5042421;28;20459;-78
2021/11/16 06:46:39;;;;;;;13.73;6.77;;;8.30;1.00;;;;;;5041561;28;20449;-79
2021/11/16 06:49:09;;;;;;;13.20;6.53;;;8.20;1.00;;;;;;5042151;28;20460;-79
2021/11/16 06:51:39;;;;;;;7.70;5.17;;;8.20;1.00;;;;;;5038016;28;20817;-79
2021/11/16 06:54:09;;;;;;;14.47;6.77;;;8.30;1.00;;;;;;5042476;28;20998;-79
2021/11/16 06:56:40;;;;;;;15.77;6.77;;;8.50;1.00;;;;;;5038314;28;20456;-79
2021/11/16 06:59:09;;;;;;;19.47;8.13;;;8.60;1.00;;;;;;5035717;28;20471;-79
2021/11/16 07:01:38;;;;;;;19.27;7.50;;;8.70;1.00;;;;;;5031915;28;20474;-79
2021/11/16 07:04:10;;;;;;;15.30;7.70;;;8.70;1.00;;;;;;5047623;28;20471;-78
2021/11/16 07:06:40;;;;;;;12.47;7.50;;;8.20;1.00;;;;;;5049453;28;21013;-79
2021/11/16 07:09:10;;;;;;;17.43;8.40;;;8.10;1.00;;;;;;5037886;28;20526;-79
2021/11/16 07:11:48;;;;;;;13.10;6.97;;;8.20;1.00;;;;;;5029778;28;20492;-79
2021/11/16 07:14:18;;;;;;;15.90;7.90;;;8.40;1.00;;;;;;5030163;28;20913;-80
2021/11/16 07:16:59;;;;;;;12.70;6.60;;;8.50;1.00;;;;;;5045470;28;20457;-80
2021/11/16 07:19:34;;;;;;;14.33;7.03;;;8.40;1.00;;;;;;5036036;28;20510;-79
2021/11/16 07:22:10;;;;;;;13.87;7.17;;;8.30;1.00;;;;;;5034120;28;20474;-79
2021/11/16 07:24:47;;;;;;;12.07;6.10;;;8.30;1.00;;;;;;5035633;28;20457;-80
2021/11/16 07:27:39;;;;;;;13.63;6.50;;;8.50;1.00;;;;;;5052139;28;20451;-79
2021/11/16 07:30:32;;;;;;;14.33;7.90;;;8.50;1.00;;;;;;5063275;28;20985;-79
2021/11/16 07:33:21;;;;;;;19.73;7.77;;;8.60;1.00;;;;;;5054706;28;20444;-80
2021/11/16 07:36:10;;;;;;;12.70;7.20;;;8.60;1.00;;;;;;5059824;28;20436;-78
2021/11/16 07:39:04;;;;;;;14.43;6.90;;;8.60;1.00;;;;;;5059332;28;20447;-80
2021/11/16 07:42:04;;;;;;;12.23;6.43;;;8.80;1.00;;;;;;5065432;28;20551;-79
2021/11/16 07:45:16;;;;;;;13.10;6.93;;;8.90;1.00;;;;;;5046423;28;20423;-80
2021/11/16 07:48:07;;;;;;;14.40;7.10;;;9.00;1.00;;;;;;5067006;28;20959;-80
2021/11/16 07:50:57;;;;;;;16.53;7.90;;;8.90;1.00;;;;;;5055146;28;20452;-80
2021/11/16 07:53:47;;;;;;;15.33;6.53;;;8.90;1.00;;;;;;5065728;28;20473;-79
2021/11/16 07:56:39;;;;;;;14.03;6.90;;;8.70;1.00;;;;;;5066841;28;20442;-80
2021/11/16 07:59:28;;;;;;;12.27;6.70;;;8.40;1.00;;;;;;5063528;28;20437;-79
2021/11/16 08:02:31;;;;;;;14.47;7.10;;;8.50;1.00;;;;;;5060886;28;20458;-80
2021/11/16 08:05:35;;;;;;;13.23;6.70;;;8.50;1.00;;;;;;5054247;28;20437;-80
2021/11/16 08:08:35;;;;;;;13.47;5.27;;;8.60;1.00;;;;;;5066052;28;20732;-79
2021/11/16 08:11:28;;;;;;;8.10;3.77;;;8.60;1.00;;;;;;5064270;28;20481;-80
2021/11/16 08:14:18;;;;;;;12.03;5.43;;;8.70;1.00;;;;;;5057799;28;20470;-79
2021/11/16 08:17:08;;;;;;;9.37;5.00;;;8.80;1.00;;;;;;5067226;28;20436;-80
2021/11/16 08:20:00;;;;;;;9.10;4.87;;;8.90;1.00;;;;;;5062766;28;20439;-80
2021/11/16 08:22:49;;;;;;;9.53;4.63;;;8.90;1.00;;;;;;5063729;28;20434;-79
2021/11/16 08:25:38;;;;;;;6.50;4.00;;;8.90;1.00;;;;;;5054125;28;20768;-78
2021/11/16 08:28:27;;;;;;;10.07;4.53;;;8.90;1.00;;;;;;5063865;28;20431;-78
2021/11/16 08:31:17;;;;;;;11.23;4.67;;;8.80;1.00;;;;;;5070680;28;20486;-78
2021/11/16 08:34:07;;;;;;;10.53;4.03;;;8.80;1.00;;;;;;5063926;28;20472;-78
2021/11/16 08:36:57;;;;;;;8.97;3.70;;;8.90;99.90;;;;;;5069989;28;20444;-78
2021/11/16 08:39:50;;;;;;;7.27;3.80;;;8.80;99.90;;;;;;5066419;28;20427;-79
2021/11/16 08:42:42;;;;;;;9.63;4.40;;;8.90;99.90;;;;;;5055788;28;21382;-80
2021/11/16 08:45:32;;;;;;;5.73;3.47;;;8.90;99.90;;;;;;5066860;28;20437;-79
2021/11/16 08:48:23;;;;;;;8.13;3.40;;;9.00;99.90;;;;;;5062255;28;21092;-79
2021/11/16 08:51:17;;;;;;;5.30;3.10;;;9.10;99.90;;;;;;5062613;28;20475;-80
2021/11/16 08:54:07;;;;;;;6.17;3.40;;;9.10;99.90;;;;;;5059881;28;20484;-80
2021/11/16 08:56:56;;;;;;;6.00;3.25;;;9.00;99.90;;;;;;5064595;28;20434;-79
2021/11/16 08:59:47;;;;;;;5.00;2.67;;;9.00;99.90;;;;;;5066887;28;20210;-80
2021/11/16 09:02:35;;;;;;;5.20;3.20;;;8.90;99.90;;;;;;5048932;28;20450;-79
2021/11/16 09:05:24;;;;;;;5.00;3.83;;;9.00;99.90;;;;;;5062257;28;20938;-79
2021/11/16 09:08:15;;;;;;;5.40;3.40;;;9.00;99.90;;;;;;5051908;28;20453;-81
2021/11/16 09:11:12;;;;;;;7.10;2.77;;;9.10;99.90;;;;;;5053829;28;20474;-79
2021/11/16 09:14:11;;;;;;;5.57;3.00;;;9.10;99.90;;;;;;5061436;28;20453;-79
2021/11/16 09:17:10;;;;;;;5.43;3.17;;;9.10;99.90;;;;;;5066643;28;20459;-79
2021/11/16 09:20:14;;;;;;;6.90;2.60;;;9.00;99.90;;;;;;5060204;28;21011;-80
2021/11/16 09:23:03;;;;;;;5.77;2.93;;;9.00;99.90;;;;;;5064044;28;20420;-78
2021/11/16 09:25:53;;;;;;;7.63;3.47;;;9.10;99.90;;;;;;5061722;28;20465;-80
2021/11/16 09:28:49;;;;;;;4.10;2.30;;;8.80;99.90;;;;;;5052908;28;20453;-79
2021/11/16 09:31:42;;;;;;;4.83;2.60;;;9.00;99.90;;;;;;5064275;28;20463;-80
2021/11/16 09:34:32;;;;;;;3.63;2.87;;;9.00;99.90;;;;;;5064201;28;20572;-78
2021/11/16 09:37:22;;;;;;;4.13;2.73;;;9.00;99.90;;;;;;5068389;28;20420;-79
2021/11/16 09:40:11;;;;;;;5.43;2.43;;;9.00;99.90;;;;;;5052197;28;20447;-79
2021/11/16 09:43:03;;;;;;;7.53;3.77;;;9.00;99.90;;;;;;5060173;28;20448;-79
2021/11/16 09:45:53;;;;;;;4.73;2.80;;;9.10;99.90;;;;;;5050721;28;20452;-79
2021/11/16 09:48:42;;;;;;;5.00;2.83;;;9.10;99.90;;;;;;5066380;28;20489;-79
2021/11/16 09:51:30;;;;;;;7.53;2.60;;;9.10;99.90;;;;;;5064411;28;20468;-80
2021/11/16 09:54:19;;;;;;;6.30;3.07;;;9.10;99.90;;;;;;5056240;28;21024;-78
2021/11/16 09:57:13;;;;;;;7.70;2.80;;;9.00;99.90;;;;;;5060913;28;20457;-79
2021/11/16 10:00:08;;;;;;;7.47;3.07;;;9.00;99.90;;;;;;5060941;28;20532;-79
2021/11/16 10:03:07;;;;;;;5.57;3.13;;;9.00;99.90;;;;;;5067425;28;20448;-80
2021/11/16 10:05:58;;;;;;;7.23;3.37;;;8.90;99.90;;;;;;5066243;28;20435;-80
2021/11/16 10:08:51;;;;;;;4.37;2.20;;;8.80;99.90;;;;;;5067491;28;20454;-80
2021/11/16 10:11:43;;;;;;;8.27;2.90;;;9.00;99.90;;;;;;5061527;28;20494;-79
2021/11/16 10:14:32;;;;;;;4.73;2.43;;;8.90;99.90;;;;;;5052185;28;20967;-78
2021/11/16 10:17:21;;;;;;;6.93;2.47;;;8.70;99.90;;;;;;5060572;28;20826;-79
2021/11/16 10:20:15;;;;;;;4.50;2.60;;;8.50;99.90;;;;;;5065874;28;20586;-79
2021/11/16 10:23:07;;;;;;;9.23;3.60;;;8.50;99.90;;;;;;5066025;28;20442;-80
2021/11/16 10:25:58;;;;;;;3.73;2.27;;;8.40;99.90;;;;;;5063772;28;21111;-79
2021/11/16 10:28:49;;;;;;;5.60;2.80;;;8.10;99.90;;;;;;5064040;28;20459;-79
2021/11/16 10:31:37;;;;;;;3.00;2.30;;;8.00;1.00;;;;;;5051906;28;20472;-79
2021/11/16 10:34:40;;;;;;;7.03;2.90;;;8.30;1.00;;;;;;5060868;28;20745;-80
2021/11/16 10:37:30;;;;;;;7.63;3.33;;;8.30;1.00;;;;;;5066147;28;20457;-80
2021/11/16 10:40:22;;;;;;;4.63;2.27;;;8.20;1.00;;;;;;5062482;28;20458;-79
2021/11/16 10:43:11;;;;;;;6.40;2.00;;;8.30;1.00;;;;;;5061121;28;20486;-80
2021/11/16 10:46:02;;;;;;;5.27;2.17;;;8.40;1.00;;;;;;5054880;28;20452;-80
2021/11/16 10:48:52;;;;;;;4.30;2.30;;;8.60;99.90;;;;;;5070262;28;20442;-79
2021/11/16 10:51:44;;;;;;;4.93;2.37;;;8.80;99.90;;;;;;5059987;28;20453;-80
2021/11/16 10:54:34;;;;;;;6.90;1.93;;;8.90;99.90;;;;;;5062122;28;20453;-78
2021/11/16 10:57:23;;;;;;;3.83;2.40;;;9.00;99.90;;;;;;5062559;28;20444;-79
2021/11/16 11:00:12;;;;;;;2.60;2.30;;;9.00;99.90;;;;;;5046727;28;20893;-80
2021/11/16 11:03:22;;;;;;;4.47;2.60;;;8.90;99.90;;;;;;5063919;28;20450;-78
2021/11/16 11:06:14;;;;;;;4.13;2.20;;;8.80;99.90;;;;;;5066846;28;20896;-79
2021/11/16 11:09:04;;;;;;;4.70;2.53;;;8.70;99.90;;;;;;5065598;28;20483;-79
2021/11/16 11:11:57;;;;;;;4.37;2.30;;;8.80;99.90;;;;;;5065637;28;20480;-79
2021/11/16 11:14:46;;;;;;;4.03;2.37;;;8.70;99.90;;;;;;5061664;28;20459;-79
2021/11/16 11:17:36;;;;;;;4.80;2.87;;;8.90;99.90;;;;;;5059654;28;20441;-79
2021/11/16 11:20:38;;;;;;;3.87;2.97;;;9.00;99.90;;;;;;5065635;28;20483;-78
2021/11/16 11:23:29;;;;;;;4.23;2.73;;;9.00;99.90;;;;;;5057439;28;20449;-80
2021/11/16 11:26:29;;;;;;;3.10;2.10;;;9.10;99.90;;;;;;5066422;28;20873;-79
2021/11/16 11:29:28;;;;;;;7.20;2.63;;;8.90;99.90;;;;;;5059541;28;20461;-79
2021/11/16 11:32:18;;;;;;;2.50;1.83;;;8.80;99.90;;;;;;5059839;28;20467;-79
2021/11/16 11:35:14;;;;;;;3.17;2.30;;;8.80;99.90;;;;;;5058119;28;20466;-80
2021/11/16 11:38:12;;;;;;;4.87;2.70;;;8.90;99.90;;;;;;5067552;28;20439;-78
2021/11/16 11:41:04;;;;;;;6.27;2.37;;;8.80;99.90;;;;;;5067438;28;20448;-78
2021/11/16 11:44:20;;;;;;;2.97;2.20;;;8.70;99.90;;;;;;5049305;28;20973;-78
2021/11/16 11:47:10;;;;;;;3.20;2.07;;;8.80;99.90;;;;;;5045920;28;20470;-78
2021/11/16 11:50:00;;;;;;;4.13;2.90;;;8.90;99.90;;;;;;5058243;28;20454;-79
2021/11/16 11:52:49;;;;;;;4.40;2.17;;;9.00;99.90;;;;;;5064616;28;20453;-79
2021/11/16 11:55:41;;;;;;;4.10;2.67;;;9.00;99.90;;;;;;5066296;28;20466;-78
2021/11/16 11:58:31;;;;;;;2.63;2.20;;;9.00;99.90;;;;;;5054080;28;20458;-79
2021/11/16 12:01:21;;;;;;;5.37;3.20;;;9.00;99.90;;;;;;5036810;28;21052;-78
2021/11/16 12:04:16;;;;;;;6.60;2.80;;;9.10;99.90;;;;;;5061528;28;20450;-79
2021/11/16 12:07:05;;;;;;;5.00;2.47;;;9.20;99.90;;;;;;5065189;28;20984;-80
2021/11/16 12:09:54;;;;;;;5.03;3.23;;;9.20;99.90;;;;;;5067919;28;20485;-80
2021/11/16 12:12:43;;;;;;;4.47;2.37;;;9.20;99.90;;;;;;5066535;28;20439;-79
2021/11/16 12:15:40;;;;;;;3.77;3.03;;;9.20;99.90;;;;;;5069747;28;20444;-78
2021/11/16 12:18:38;;;;;;;4.43;2.57;;;9.30;99.90;;;;;;5060240;28;20476;-78
2021/11/16 12:21:29;;;;;;;4.20;3.03;;;9.10;99.90;;;;;;5061223;28;20838;-79
2021/11/16 12:24:30;;;;;;;3.93;2.47;;;9.10;99.90;;;;;;5054817;28;20453;-79
2021/11/16 12:27:22;;;;;;;5.10;1.80;;;8.90;99.90;;;;;;5064894;28;20454;-79
2021/11/16 12:30:11;;;;;;;6.40;3.00;;;9.10;99.90;;;;;;5062864;28;20499;-79
2021/11/16 12:32:59;;;;;;;3.20;2.70;;;9.20;99.90;;;;;;5061695;28;20463;-79
2021/11/16 12:35:48;;;;;;;2.27;2.00;;;9.20;99.90;;;;;;5070944;28;20964;-80
2021/11/16 12:38:41;;;;;;;5.13;3.30;;;9.30;99.90;;;;;;5064641;28;21086;-80
2021/11/16 12:41:35;;;;;;;7.17;2.87;;;9.40;99.90;;;;;;5057439;28;20459;-80
2021/11/16 12:44:43;;;;;;;4.47;2.67;;;9.40;99.90;;;;;;5065230;28;20446;-79
2021/11/16 12:47:33;;;;;;;5.93;3.10;;;9.40;99.90;;;;;;5069063;28;20975;-79
2021/11/16 12:50:23;;;;;;;4.70;2.27;;;9.40;99.90;;;;;;5069772;28;20812;-78
2021/11/16 12:53:11;;;;;;;6.63;3.67;;;9.20;99.90;;;;;;5069611;28;20821;-80
2021/11/16 12:56:01;;;;;;;6.23;3.53;;;9.20;99.90;;;;;;5065333;28;20434;-79
2021/11/16 12:58:56;;;;;;;5.80;2.70;;;9.20;99.90;;;;;;5068300;28;20870;-79
2021/11/16 13:01:47;;;;;;;5.47;3.30;;;9.20;99.90;;;;;;5069704;28;20983;-79
2021/11/16 13:04:43;;;;;;;8.80;3.17;;;9.30;99.90;;;;;;5069186;28;20452;-79
2021/11/16 13:07:34;;;;;;;4.07;2.47;;;9.30;99.90;;;;;;5069422;28;20525;-79
2021/11/16 13:10:24;;;;;;;4.90;3.50;;;9.40;99.90;;;;;;5063869;28;20724;-79
2021/11/16 13:13:24;;;;;;;11.33;3.37;;;9.40;99.90;;;;;;5053996;28;20810;-79
2021/11/16 13:16:24;;;;;;;6.20;3.47;;;9.40;99.90;;;;;;5055965;28;20475;-79
2021/11/16 13:19:13;;;;;;;7.50;4.03;;;9.40;99.90;;;;;;5058534;28;20473;-79
2021/11/16 13:22:53;;;;;;;3.47;2.47;;;9.40;99.90;;;;;;5060743;28;20566;-78
2021/11/16 13:25:46;;;;;;;3.10;2.80;;;9.20;99.90;;;;;;5054896;28;20449;-78
2021/11/16 13:28:55;;;;;;;4.53;3.40;;;9.20;99.90;;;;;;5065074;28;20463;-78
2021/11/16 13:31:50;;;;;;;7.10;4.20;;;9.20;99.90;;;;;;5066580;28;20473;-79
2021/11/16 13:34:43;;;;;;;4.73;3.33;;;9.30;99.90;;;;;;5068392;28;20434;-79
2021/11/16 13:37:32;;;;;;;4.80;3.23;;;9.20;99.90;;;;;;5053612;28;20459;-78
2021/11/16 13:40:24;;;;;;;7.03;3.37;;;9.30;99.90;;;;;;5059596;28;20825;-79
2021/11/16 13:43:13;;;;;;;4.00;3.13;;;9.40;99.90;;;;;;5055641;28;20449;-79
2021/11/16 13:46:14;;;;;;;4.20;2.70;;;9.40;99.90;;;;;;5062499;28;21265;-78
2021/11/16 13:49:03;;;;;;;5.00;2.83;;;9.10;99.90;;;;;;5062892;28;21029;-79
2021/11/16 13:51:51;;;;;;;5.03;2.90;;;9.10;99.90;;;;;;5062781;28;21007;-79
2021/11/16 13:54:42;;;;;;;4.00;3.17;;;9.30;99.90;;;;;;5064103;28;20483;-79
2021/11/16 13:57:33;;;;;;;4.77;2.50;;;9.30;99.90;;;;;;5066158;28;20486;-79
2021/11/16 14:00:24;;;;;;;6.13;3.80;;;9.30;99.90;;;;;;5072621;28;20445;-79
2021/11/16 14:03:22;;;;;;;6.82;3.95;;;9.30;99.90;;;;;;5053544;28;20424;-79
2021/11/16 14:06:10;;;;;;;4.43;3.47;;;9.40;99.90;;;;;;5048176;28;20222;-79
2021/11/16 14:08:59;;;;;;;3.70;2.40;;;9.30;99.90;;;;;;5061507;28;20456;-79
2021/11/16 14:11:52;;;;;;;4.97;3.40;;;9.40;99.90;;;;;;5062088;28;20517;-79
2021/11/16 14:14:41;;;;;;;2.90;2.53;;;9.40;99.90;;;;;;5054842;28;20459;-79